createdAt,value
2017-05-10T00:00:22.305Z,1008.22
2017-05-10T00:01:22.279Z,1008.2
2017-05-10T00:02:22.254Z,1008.18
2017-05-10T00:03:22.231Z,1008.21
2017-05-10T00:04:22.210Z,1008.21
2017-05-10T00:05:22.185Z,1008.2
2017-05-10T00:06:22.157Z,1008.21
2017-05-10T00:07:22.133Z,1008.21
2017-05-10T00:08:22.111Z,1008.22
2017-05-10T00:09:22.136Z,1008.14
2017-05-10T00:10:22.060Z,1008.16
2017-05-10T00:11:22.043Z,1008.11
2017-05-10T00:12:22.013Z,1008.13
2017-05-10T00:13:21.995Z,1008.11
2017-05-10T00:14:21.965Z,1008.09
2017-05-10T00:15:21.941Z,1008.03
2017-05-10T00:16:21.917Z,1008.03
2017-05-10T00:17:21.890Z,1007.98
2017-05-10T00:18:21.873Z,1008
2017-05-10T00:19:21.845Z,1007.99
2017-05-10T00:20:21.820Z,1007.96
2017-05-10T00:21:21.796Z,1007.99
2017-05-10T00:22:21.771Z,1007.99
2017-05-10T00:23:21.749Z,1008
2017-05-10T00:24:21.725Z,1007.99
2017-05-10T00:25:21.705Z,1007.98
2017-05-10T00:26:21.674Z,1007.97
2017-05-10T00:27:21.654Z,1007.97
2017-05-10T00:28:21.635Z,1007.94
2017-05-10T00:29:21.607Z,1007.9
2017-05-10T00:30:21.580Z,1007.9
2017-05-10T00:31:21.556Z,1007.86
2017-05-10T00:32:21.528Z,1007.86
2017-05-10T00:33:21.505Z,1007.84
2017-05-10T00:34:21.483Z,1007.84
2017-05-10T00:35:21.508Z,1007.79
2017-05-10T00:36:21.433Z,1007.8
2017-05-10T00:37:21.411Z,1007.77
2017-05-10T00:38:21.389Z,1007.76
2017-05-10T00:39:21.367Z,1007.72
2017-05-10T00:40:21.335Z,1007.74
2017-05-10T00:41:21.313Z,1007.74
2017-05-10T00:42:21.287Z,1007.75
2017-05-10T00:43:21.263Z,1007.71
2017-05-10T00:44:21.238Z,1007.63
2017-05-10T00:45:21.218Z,1007.67
2017-05-10T00:46:21.190Z,1007.65
2017-05-10T00:47:21.167Z,1007.64
2017-05-10T00:48:21.146Z,1007.61
2017-05-10T00:49:21.124Z,1007.63
2017-05-10T00:50:21.096Z,1007.67
2017-05-10T00:51:21.069Z,1007.62
2017-05-10T00:52:21.048Z,1007.61
2017-05-10T00:53:21.020Z,1007.66
2017-05-10T00:54:20.996Z,1007.61
2017-05-10T00:55:20.977Z,1007.57
2017-05-10T00:56:20.948Z,1007.62
2017-05-10T00:57:20.925Z,1007.62
2017-05-10T00:58:20.900Z,1007.57
2017-05-10T00:59:20.876Z,1007.61
2017-05-10T01:00:20.851Z,1007.63
2017-05-10T01:01:20.828Z,1007.6
2017-05-10T01:02:20.804Z,1007.61
2017-05-10T01:03:20.778Z,1007.59
2017-05-10T01:04:20.751Z,1007.55
2017-05-10T01:05:20.731Z,1007.55
2017-05-10T01:06:20.708Z,1007.54
2017-05-10T01:07:20.681Z,1007.53
2017-05-10T01:08:20.656Z,1007.47
2017-05-10T01:09:20.633Z,1007.44
2017-05-10T01:10:20.614Z,1007.46
2017-05-10T01:11:20.582Z,1007.44
2017-05-10T01:12:20.558Z,1007.39
2017-05-10T01:13:20.783Z,1007.41
2017-05-10T01:14:20.508Z,1007.38
2017-05-10T01:15:20.487Z,1007.37
2017-05-10T01:16:20.456Z,1007.39
2017-05-10T01:17:20.435Z,1007.41
2017-05-10T01:18:20.410Z,1007.36
2017-05-10T01:19:20.386Z,1007.33
2017-05-10T01:20:20.367Z,1007.36
2017-05-10T01:21:20.337Z,1007.33
2017-05-10T01:22:20.321Z,1007.3
2017-05-10T01:23:20.290Z,1007.31
2017-05-10T01:24:20.264Z,1007.31
2017-05-10T01:25:20.240Z,1007.31
2017-05-10T01:26:20.216Z,1007.33
2017-05-10T01:27:20.195Z,1007.31
2017-05-10T01:28:20.169Z,1007.33
2017-05-10T01:29:20.140Z,1007.29
2017-05-10T01:30:20.116Z,1007.32
2017-05-10T01:31:20.090Z,1007.27
2017-05-10T01:32:20.067Z,1007.25
2017-05-10T01:33:20.043Z,1007.29
2017-05-10T01:34:20.021Z,1007.28
2017-05-10T01:35:19.995Z,1007.27
2017-05-10T01:36:19.969Z,1007.25
2017-05-10T01:37:19.944Z,1007.21
2017-05-10T01:38:19.919Z,1007.17
2017-05-10T01:39:19.900Z,1007.18
2017-05-10T01:40:19.871Z,1007.19
2017-05-10T01:41:19.845Z,1007.22
2017-05-10T01:42:19.822Z,1007.16
2017-05-10T01:43:19.795Z,1007.15
2017-05-10T01:44:19.779Z,1007.09
2017-05-10T01:45:19.750Z,1007.16
2017-05-10T01:46:19.734Z,1007.09
2017-05-10T01:47:19.701Z,1007.09
2017-05-10T01:48:19.673Z,1007.08
2017-05-10T01:49:19.648Z,1007.04
2017-05-10T01:50:19.623Z,1007.02
2017-05-10T01:51:19.601Z,1007.01
2017-05-10T01:52:19.577Z,1007
2017-05-10T01:53:19.551Z,1007.03
2017-05-10T01:54:19.527Z,1007
2017-05-10T01:55:19.499Z,1007.01
2017-05-10T01:56:19.477Z,1006.97
2017-05-10T01:57:19.452Z,1006.95
2017-05-10T01:58:19.430Z,1006.96
2017-05-10T01:59:19.452Z,1006.93
2017-05-10T02:00:19.379Z,1006.93
2017-05-10T02:01:19.353Z,1006.95
2017-05-10T02:02:19.333Z,1006.91
2017-05-10T02:03:19.303Z,1006.91
2017-05-10T02:04:19.280Z,1006.91
2017-05-10T02:05:19.307Z,1006.94
2017-05-10T02:06:19.238Z,1006.88
2017-05-10T02:07:19.207Z,1006.86
2017-05-10T02:08:19.182Z,1006.83
2017-05-10T02:09:19.162Z,1006.82
2017-05-10T02:10:19.133Z,1006.83
2017-05-10T02:11:19.107Z,1006.8
2017-05-10T02:12:19.088Z,1006.8
2017-05-10T02:13:19.060Z,1006.8
2017-05-10T02:14:19.037Z,1006.78
2017-05-10T02:15:19.013Z,1006.81
2017-05-10T02:16:18.989Z,1006.81
2017-05-10T02:17:18.960Z,1006.83
2017-05-10T02:18:18.939Z,1006.82
2017-05-10T02:19:18.912Z,1006.82
2017-05-10T02:20:18.888Z,1006.81
2017-05-10T02:21:18.865Z,1006.76
2017-05-10T02:22:18.840Z,1006.79
2017-05-10T02:23:18.813Z,1006.75
2017-05-10T02:24:18.793Z,1006.77
2017-05-10T02:25:18.764Z,1006.75
2017-05-10T02:26:18.739Z,1006.72
2017-05-10T02:27:18.720Z,1006.7
2017-05-10T02:28:18.691Z,1006.74
2017-05-10T02:29:18.665Z,1006.71
2017-05-10T02:30:18.641Z,1006.67
2017-05-10T02:31:18.617Z,1006.67
2017-05-10T02:32:18.592Z,1006.67
2017-05-10T02:33:18.569Z,1006.68
2017-05-10T02:34:18.543Z,1006.66
2017-05-10T02:35:18.513Z,1006.61
2017-05-10T02:36:18.492Z,1006.57
2017-05-10T02:37:18.470Z,1006.54
2017-05-10T02:38:18.444Z,1006.57
2017-05-10T02:39:18.419Z,1006.55
2017-05-10T02:40:18.394Z,1006.57
2017-05-10T02:41:18.421Z,1006.51
2017-05-10T02:42:18.382Z,1006.52
2017-05-10T02:43:18.322Z,1006.53
2017-05-10T02:44:18.297Z,1006.48
2017-05-10T02:45:18.272Z,1006.51
2017-05-10T02:46:18.246Z,1006.49
2017-05-10T02:47:18.225Z,1006.48
2017-05-10T02:48:18.198Z,1006.5
2017-05-10T02:49:18.173Z,1006.46
2017-05-10T02:50:18.147Z,1006.46
2017-05-10T02:51:18.122Z,1006.51
2017-05-10T02:52:18.101Z,1006.44
2017-05-10T02:53:18.075Z,1006.44
2017-05-10T02:54:18.053Z,1006.45
2017-05-10T02:55:18.023Z,1006.46
2017-05-10T02:56:17.999Z,1006.41
2017-05-10T02:57:17.973Z,1006.42
2017-05-10T02:58:17.954Z,1006.44
2017-05-10T02:59:17.925Z,1006.47
2017-05-10T03:00:17.900Z,1006.38
2017-05-10T03:01:17.874Z,1006.41
2017-05-10T03:02:17.849Z,1006.41
2017-05-10T03:03:17.826Z,1006.37
2017-05-10T03:04:17.803Z,1006.4
2017-05-10T03:05:17.776Z,1006.38
2017-05-10T03:06:17.750Z,1006.35
2017-05-10T03:07:17.727Z,1006.35
2017-05-10T03:08:17.699Z,1006.33
2017-05-10T03:09:17.675Z,1006.32
2017-05-10T03:10:17.656Z,1006.3
2017-05-10T03:11:17.627Z,1006.25
2017-05-10T03:12:17.600Z,1006.3
2017-05-10T03:13:17.575Z,1006.25
2017-05-10T03:14:17.550Z,1006.23
2017-05-10T03:15:17.527Z,1006.22
2017-05-10T03:16:17.502Z,1006.18
2017-05-10T03:17:17.476Z,1006.18
2017-05-10T03:18:17.453Z,1006.17
2017-05-10T03:19:17.426Z,1006.17
2017-05-10T03:20:17.400Z,1006.14
2017-05-10T03:21:17.375Z,1006.19
2017-05-10T03:22:17.351Z,1006.18
2017-05-10T03:23:17.326Z,1006.18
2017-05-10T03:24:17.301Z,1006.18
2017-05-10T03:25:17.276Z,1006.16
2017-05-10T03:26:17.301Z,1006.13
2017-05-10T03:27:17.227Z,1006.11
2017-05-10T03:28:17.202Z,1006.13
2017-05-10T03:29:17.176Z,1006.15
2017-05-10T03:30:17.151Z,1006.13
2017-05-10T03:31:17.125Z,1006.1
2017-05-10T03:32:17.101Z,1006.14
2017-05-10T03:33:17.073Z,1006.11
2017-05-10T03:34:17.050Z,1006.12
2017-05-10T03:35:17.023Z,1006.1
2017-05-10T03:36:17.001Z,1006.07
2017-05-10T03:37:16.976Z,1006.09
2017-05-10T03:38:16.956Z,1006.08
2017-05-10T03:39:16.926Z,1006.11
2017-05-10T03:40:16.903Z,1006.05
2017-05-10T03:41:16.877Z,1006.02
2017-05-10T03:42:16.852Z,1006.05
2017-05-10T03:43:16.825Z,1006
2017-05-10T03:44:16.798Z,1005.99
2017-05-10T03:45:16.775Z,1005.99
2017-05-10T03:46:16.749Z,1006.03
2017-05-10T03:47:16.729Z,1005.97
2017-05-10T03:48:16.697Z,1005.99
2017-05-10T03:49:16.674Z,1005.97
2017-05-10T03:50:16.649Z,1005.92
2017-05-10T03:51:16.624Z,1005.94
2017-05-10T03:52:16.600Z,1005.96
2017-05-10T03:53:16.578Z,1005.95
2017-05-10T03:54:16.599Z,1005.91
2017-05-10T03:55:16.524Z,1005.92
2017-05-10T03:56:16.546Z,1005.91
2017-05-10T03:57:16.474Z,1005.92
2017-05-10T03:58:16.446Z,1005.9
2017-05-10T03:59:16.428Z,1005.93
2017-05-10T04:00:16.399Z,1005.89
2017-05-10T04:01:16.373Z,1005.96
2017-05-10T04:02:16.349Z,1005.88
2017-05-10T04:03:16.372Z,1005.9
2017-05-10T04:04:16.297Z,1005.91
2017-05-10T04:05:16.278Z,1005.91
2017-05-10T04:06:16.249Z,1005.9
2017-05-10T04:07:16.219Z,1005.88
2017-05-10T04:08:16.288Z,1005.88
2017-05-10T04:09:16.173Z,1005.94
2017-05-10T04:10:16.146Z,1005.89
2017-05-10T04:11:16.125Z,1005.87
2017-05-10T04:12:16.097Z,1005.84
2017-05-10T04:13:16.072Z,1005.84
2017-05-10T04:14:16.044Z,1005.82
2017-05-10T04:15:16.024Z,1005.85
2017-05-10T04:16:15.997Z,1005.85
2017-05-10T04:17:15.972Z,1005.88
2017-05-10T04:18:15.946Z,1005.84
2017-05-10T04:19:15.921Z,1005.87
2017-05-10T04:20:15.898Z,1005.9
2017-05-10T04:21:15.870Z,1005.89
2017-05-10T04:22:15.848Z,1005.89
2017-05-10T04:23:15.826Z,1005.88
2017-05-10T04:24:15.797Z,1005.92
2017-05-10T04:25:15.770Z,1005.9
2017-05-10T04:26:15.748Z,1005.89
2017-05-10T04:27:15.727Z,1005.9
2017-05-10T04:28:15.698Z,1005.92
2017-05-10T04:29:15.673Z,1005.86
2017-05-10T04:30:15.648Z,1005.86
2017-05-10T04:31:15.623Z,1005.91
2017-05-10T04:32:15.597Z,1005.89
2017-05-10T04:33:15.578Z,1005.91
2017-05-10T04:34:15.549Z,1005.92
2017-05-10T04:35:15.526Z,1005.89
2017-05-10T04:36:15.501Z,1005.89
2017-05-10T04:37:15.475Z,1005.88
2017-05-10T04:38:15.448Z,1005.9
2017-05-10T04:39:15.427Z,1005.91
2017-05-10T04:40:15.405Z,1005.89
2017-05-10T04:41:15.376Z,1005.93
2017-05-10T04:42:15.352Z,1005.94
2017-05-10T04:43:15.329Z,1005.94
2017-05-10T04:44:15.301Z,1005.93
2017-05-10T04:45:15.277Z,1005.98
2017-05-10T04:46:15.284Z,1005.96
2017-05-10T04:47:15.229Z,1005.97
2017-05-10T04:48:15.200Z,1005.95
2017-05-10T04:49:15.180Z,1005.94
2017-05-10T04:50:15.158Z,1005.96
2017-05-10T04:51:15.134Z,1005.95
2017-05-10T04:52:15.111Z,1006.01
2017-05-10T04:53:15.084Z,1005.99
2017-05-10T04:54:15.057Z,1006
2017-05-10T04:55:15.035Z,1005.98
2017-05-10T04:56:15.010Z,1005.98
2017-05-10T04:57:14.991Z,1005.97
2017-05-10T04:58:14.963Z,1005.98
2017-05-10T04:59:14.937Z,1006.01
2017-05-10T05:00:14.914Z,1005.98
2017-05-10T05:01:14.896Z,1005.98
2017-05-10T05:02:14.867Z,1006
2017-05-10T05:03:14.843Z,1006.02
2017-05-10T05:04:14.821Z,1006.02
2017-05-10T05:05:14.793Z,1006.04
2017-05-10T05:06:14.778Z,1006.03
2017-05-10T05:07:14.752Z,1006.05
2017-05-10T05:08:14.727Z,1006.06
2017-05-10T05:09:14.705Z,1006.09
2017-05-10T05:10:14.688Z,1006.01
2017-05-10T05:11:14.657Z,1006.06
2017-05-10T05:12:14.634Z,1006.06
2017-05-10T05:13:14.612Z,1006.08
2017-05-10T05:14:14.618Z,1006.08
2017-05-10T05:15:14.567Z,1006.05
2017-05-10T05:16:14.544Z,1006.1
2017-05-10T05:17:14.521Z,1006.1
2017-05-10T05:18:14.502Z,1006.12
2017-05-10T05:19:14.475Z,1006.09
2017-05-10T05:20:14.453Z,1006.09
2017-05-10T05:21:14.432Z,1006.1
2017-05-10T05:22:14.409Z,1006.12
2017-05-10T05:23:14.388Z,1006.13
2017-05-10T05:24:14.364Z,1006.13
2017-05-10T05:25:14.343Z,1006.1
2017-05-10T05:26:14.319Z,1006.12
2017-05-10T05:27:14.297Z,1006.13
2017-05-10T05:28:14.276Z,1006.1
2017-05-10T05:29:14.304Z,1006.12
2017-05-10T05:30:14.231Z,1006.17
2017-05-10T05:31:14.208Z,1006.09
2017-05-10T05:32:14.190Z,1006.11
2017-05-10T05:33:14.169Z,1006.1
2017-05-10T05:34:14.149Z,1006.09
2017-05-10T05:35:14.124Z,1006.12
2017-05-10T05:36:14.102Z,1006.11
2017-05-10T05:37:14.083Z,1006.13
2017-05-10T05:38:14.059Z,1006.14
2017-05-10T05:39:14.036Z,1006.14
2017-05-10T05:40:14.019Z,1006.16
2017-05-10T05:41:13.999Z,1006.17
2017-05-10T05:42:13.972Z,1006.14
2017-05-10T05:43:13.949Z,1006.1
2017-05-10T05:44:13.931Z,1006.12
2017-05-10T05:45:13.907Z,1006.09
2017-05-10T05:46:13.883Z,1006.13
2017-05-10T05:47:13.867Z,1006.12
2017-05-10T05:48:13.849Z,1006.13
2017-05-10T05:49:13.825Z,1006.13
2017-05-10T05:50:13.804Z,1006.1
2017-05-10T05:51:13.783Z,1006.09
2017-05-10T05:52:13.762Z,1006.11
2017-05-10T05:53:13.742Z,1006.07
2017-05-10T05:54:13.720Z,1006.08
2017-05-10T05:55:13.703Z,1006.06
2017-05-10T05:56:13.679Z,1006.05
2017-05-10T05:57:13.658Z,1006.02
2017-05-10T05:58:13.638Z,1006
2017-05-10T05:59:13.619Z,1005.97
2017-05-10T06:00:13.600Z,1005.95
2017-05-10T06:01:13.576Z,1006.01
2017-05-10T06:02:13.555Z,1005.98
2017-05-10T06:03:13.584Z,1005.97
2017-05-10T06:04:13.517Z,1005.92
2017-05-10T06:05:13.497Z,1005.95
2017-05-10T06:06:13.485Z,1005.94
2017-05-10T06:07:13.459Z,1005.92
2017-05-10T06:08:13.436Z,1005.92
2017-05-10T06:09:13.413Z,1005.88
2017-05-10T06:10:13.445Z,1005.91
2017-05-10T06:11:13.378Z,1005.88
2017-05-10T06:12:13.357Z,1005.87
2017-05-10T06:13:13.338Z,1005.87
2017-05-10T06:14:13.318Z,1005.91
2017-05-10T06:15:13.297Z,1005.88
2017-05-10T06:16:13.279Z,1005.84
2017-05-10T06:17:13.258Z,1005.86
2017-05-10T06:18:13.237Z,1005.87
2017-05-10T06:19:13.221Z,1005.84
2017-05-10T06:20:13.202Z,1005.87
2017-05-10T06:21:13.185Z,1005.86
2017-05-10T06:22:13.165Z,1005.77
2017-05-10T06:23:13.147Z,1005.85
2017-05-10T06:24:13.344Z,1005.88
2017-05-10T06:25:13.106Z,1005.85
2017-05-10T06:26:13.088Z,1005.86
2017-05-10T06:27:13.070Z,1005.78
2017-05-10T06:28:13.052Z,1005.82
2017-05-10T06:29:13.036Z,1005.85
2017-05-10T06:30:13.015Z,1005.8
2017-05-10T06:31:12.995Z,1005.84
2017-05-10T06:32:12.979Z,1005.84
2017-05-10T06:33:12.956Z,1005.86
2017-05-10T06:34:12.944Z,1005.89
2017-05-10T06:35:12.924Z,1005.84
2017-05-10T06:36:12.904Z,1005.89
2017-05-10T06:37:12.935Z,1005.85
2017-05-10T06:38:12.868Z,1005.85
2017-05-10T06:39:12.849Z,1005.86
2017-05-10T06:40:12.834Z,1005.86
2017-05-10T06:41:12.812Z,1005.83
2017-05-10T06:42:12.796Z,1005.76
2017-05-10T06:43:12.781Z,1005.79
2017-05-10T06:44:12.762Z,1005.78
2017-05-10T06:45:12.740Z,1005.84
2017-05-10T06:46:12.723Z,1005.76
2017-05-10T06:47:12.706Z,1005.76
2017-05-10T06:48:12.688Z,1005.74
2017-05-10T06:49:12.670Z,1005.8
2017-05-10T06:50:12.655Z,1005.72
2017-05-10T06:51:12.635Z,1005.8
2017-05-10T06:52:12.619Z,1005.74
2017-05-10T06:53:12.602Z,1005.73
2017-05-10T06:54:12.589Z,1005.74
2017-05-10T06:55:12.569Z,1005.79
2017-05-10T06:56:12.551Z,1005.78
2017-05-10T06:57:12.535Z,1005.75
2017-05-10T06:58:12.517Z,1005.72
2017-05-10T06:59:12.548Z,1005.68
2017-05-10T07:00:12.480Z,1005.69
2017-05-10T07:01:12.464Z,1005.67
2017-05-10T07:02:12.449Z,1005.67
2017-05-10T07:03:12.432Z,1005.71
2017-05-10T07:04:12.469Z,1005.65
2017-05-10T07:05:12.397Z,1005.72
2017-05-10T07:06:12.385Z,1005.72
2017-05-10T07:07:12.369Z,1005.65
2017-05-10T07:08:12.348Z,1005.66
2017-05-10T07:09:12.333Z,1005.67
2017-05-10T07:10:12.319Z,1005.66
2017-05-10T07:11:12.300Z,1005.68
2017-05-10T07:12:12.285Z,1005.64
2017-05-10T07:13:12.268Z,1005.65
2017-05-10T07:14:12.257Z,1005.64
2017-05-10T07:15:12.240Z,1005.65
2017-05-10T07:16:12.219Z,1005.58
2017-05-10T07:17:12.211Z,1005.66
2017-05-10T07:18:12.187Z,1005.6
2017-05-10T07:19:12.172Z,1005.63
2017-05-10T07:20:12.209Z,1005.64
2017-05-10T07:21:12.139Z,1005.62
2017-05-10T07:22:12.125Z,1005.58
2017-05-10T07:23:12.109Z,1005.6
2017-05-10T07:24:12.094Z,1005.62
2017-05-10T07:25:12.079Z,1005.59
2017-05-10T07:26:12.064Z,1005.56
2017-05-10T07:27:12.048Z,1005.58
2017-05-10T07:28:12.031Z,1005.54
2017-05-10T07:29:12.018Z,1005.63
2017-05-10T07:30:12.003Z,1005.66
2017-05-10T07:31:11.988Z,1005.64
2017-05-10T07:32:11.971Z,1005.59
2017-05-10T07:33:11.960Z,1005.61
2017-05-10T07:34:11.944Z,1005.62
2017-05-10T07:35:11.928Z,1005.64
2017-05-10T07:36:11.912Z,1005.61
2017-05-10T07:37:11.900Z,1005.59
2017-05-10T07:38:11.885Z,1005.61
2017-05-10T07:39:11.870Z,1005.56
2017-05-10T07:40:11.905Z,1005.54
2017-05-10T07:41:11.840Z,1005.54
2017-05-10T07:42:11.829Z,1005.55
2017-05-10T07:43:11.862Z,1005.5
2017-05-10T07:44:11.797Z,1005.52
2017-05-10T07:45:11.787Z,1005.56
2017-05-10T07:46:11.768Z,1005.56
2017-05-10T07:47:11.754Z,1005.56
2017-05-10T07:48:11.741Z,1005.52
2017-05-10T07:49:11.724Z,1005.51
2017-05-10T07:50:11.712Z,1005.53
2017-05-10T07:51:11.697Z,1005.51
2017-05-10T07:52:11.684Z,1005.5
2017-05-10T07:53:11.669Z,1005.51
2017-05-10T07:54:11.652Z,1005.49
2017-05-10T07:55:11.641Z,1005.47
2017-05-10T07:56:11.629Z,1005.45
2017-05-10T07:57:11.610Z,1005.5
2017-05-10T07:58:11.599Z,1005.46
2017-05-10T07:59:11.588Z,1005.45
2017-05-10T08:00:11.568Z,1005.43
2017-05-10T08:01:11.554Z,1005.43
2017-05-10T08:02:11.590Z,1005.41
2017-05-10T08:03:11.526Z,1005.38
2017-05-10T08:04:11.511Z,1005.38
2017-05-10T08:05:11.503Z,1005.4
2017-05-10T08:06:11.485Z,1005.38
2017-05-10T08:07:11.472Z,1005.37
2017-05-10T08:08:11.459Z,1005.35
2017-05-10T08:09:11.445Z,1005.33
2017-05-10T08:10:11.433Z,1005.43
2017-05-10T08:11:11.419Z,1005.38
2017-05-10T08:12:11.409Z,1005.44
2017-05-10T08:13:11.397Z,1005.45
2017-05-10T08:14:11.383Z,1005.41
2017-05-10T08:15:11.372Z,1005.4
2017-05-10T08:16:11.359Z,1005.42
2017-05-10T08:17:11.346Z,1005.44
2017-05-10T08:18:11.335Z,1005.36
2017-05-10T08:19:11.321Z,1005.37
2017-05-10T08:20:11.346Z,1005.43
2017-05-10T08:21:11.297Z,1005.38
2017-05-10T08:22:11.286Z,1005.29
2017-05-10T08:23:11.325Z,1005.3
2017-05-10T08:24:11.262Z,1005.33
2017-05-10T08:25:11.249Z,1005.33
2017-05-10T08:26:11.241Z,1005.3
2017-05-10T08:27:11.228Z,1005.29
2017-05-10T08:28:11.217Z,1005.36
2017-05-10T08:29:11.204Z,1005.31
2017-05-10T08:30:11.192Z,1005.35
2017-05-10T08:31:11.181Z,1005.33
2017-05-10T08:32:11.166Z,1005.41
2017-05-10T08:33:11.157Z,1005.37
2017-05-10T08:34:11.142Z,1005.35
2017-05-10T08:35:11.130Z,1005.31
2017-05-10T08:36:11.121Z,1005.26
2017-05-10T08:37:11.103Z,1005.31
2017-05-10T08:38:11.093Z,1005.24
2017-05-10T08:39:11.081Z,1005.31
2017-05-10T08:40:11.116Z,1005.29
2017-05-10T08:41:11.051Z,1005.3
2017-05-10T08:42:11.035Z,1005.29
2017-05-10T08:43:11.027Z,1005.3
2017-05-10T08:44:11.045Z,1005.28
2017-05-10T08:45:11.003Z,1005.31
2017-05-10T08:46:10.986Z,1005.26
2017-05-10T08:47:10.972Z,1005.2
2017-05-10T08:48:10.961Z,1005.23
2017-05-10T08:49:10.950Z,1005.17
2017-05-10T08:50:10.937Z,1005.2
2017-05-10T08:51:10.973Z,1005.21
2017-05-10T08:52:10.910Z,1005.14
2017-05-10T08:53:10.898Z,1005.15
2017-05-10T08:54:10.889Z,1005.2
2017-05-10T08:55:10.870Z,1005.14
2017-05-10T08:56:10.856Z,1005.04
2017-05-10T08:57:10.841Z,1005.04
2017-05-10T08:58:10.832Z,1005.09
2017-05-10T08:59:10.813Z,1005.01
2017-05-10T09:00:10.799Z,1005.13
2017-05-10T09:01:10.789Z,1005.12
2017-05-10T09:02:10.769Z,1005.05
2017-05-10T09:03:10.753Z,1005.01
2017-05-10T09:04:10.737Z,1005.07
2017-05-10T09:05:10.724Z,1005.06
2017-05-10T09:06:10.708Z,1005
2017-05-10T09:07:10.693Z,1004.96
2017-05-10T09:08:10.679Z,1004.96
2017-05-10T09:09:10.667Z,1004.94
2017-05-10T09:10:10.648Z,1004.99
2017-05-10T09:11:10.631Z,1004.97
2017-05-10T09:12:10.618Z,1005.02
2017-05-10T09:13:10.600Z,1004.97
2017-05-10T09:14:10.583Z,1004.98
2017-05-10T09:15:10.568Z,1004.97
2017-05-10T09:16:10.553Z,1004.84
2017-05-10T09:17:10.543Z,1005
2017-05-10T09:18:10.524Z,1004.93
2017-05-10T09:19:10.506Z,1004.93
2017-05-10T09:20:10.493Z,1004.88
2017-05-10T09:21:10.480Z,1004.91
2017-05-10T09:22:10.463Z,1004.99
2017-05-10T09:23:10.448Z,1004.95
2017-05-10T09:24:10.435Z,1004.9
2017-05-10T09:25:10.420Z,1004.82
2017-05-10T09:26:10.406Z,1004.87
2017-05-10T09:27:10.390Z,1004.81
2017-05-10T09:28:10.377Z,1004.87
2017-05-10T09:29:10.365Z,1004.8
2017-05-10T09:30:10.349Z,1004.82
2017-05-10T09:31:10.334Z,1004.81
2017-05-10T09:32:10.371Z,1004.84
2017-05-10T09:33:10.304Z,1004.79
2017-05-10T09:34:10.289Z,1004.76
2017-05-10T09:35:10.272Z,1004.75
2017-05-10T09:36:10.256Z,1004.8
2017-05-10T09:37:10.240Z,1004.82
2017-05-10T09:38:10.223Z,1004.82
2017-05-10T09:39:10.209Z,1004.78
2017-05-10T09:40:10.196Z,1004.81
2017-05-10T09:41:10.178Z,1004.69
2017-05-10T09:42:10.160Z,1004.75
2017-05-10T09:43:10.143Z,1004.69
2017-05-10T09:44:10.128Z,1004.77
2017-05-10T09:45:10.108Z,1004.73
2017-05-10T09:46:10.095Z,1004.69
2017-05-10T09:47:10.081Z,1004.73
2017-05-10T09:48:10.064Z,1004.74
2017-05-10T09:49:10.047Z,1004.72
2017-05-10T09:50:10.031Z,1004.67
2017-05-10T09:51:10.018Z,1004.7
2017-05-10T09:52:09.999Z,1004.7
2017-05-10T09:53:09.983Z,1004.68
2017-05-10T09:54:09.965Z,1004.71
2017-05-10T09:55:09.951Z,1004.68
2017-05-10T09:56:09.937Z,1004.64
2017-05-10T09:57:09.922Z,1004.63
2017-05-10T09:58:09.911Z,1004.56
2017-05-10T09:59:09.894Z,1004.63
2017-05-10T10:00:09.879Z,1004.58
2017-05-10T10:01:09.863Z,1004.63
2017-05-10T10:02:09.848Z,1004.58
2017-05-10T10:03:09.884Z,1004.67
2017-05-10T10:04:09.818Z,1004.62
2017-05-10T10:05:09.803Z,1004.6
2017-05-10T10:06:09.785Z,1004.61
2017-05-10T10:07:09.771Z,1004.66
2017-05-10T10:08:09.757Z,1004.62
2017-05-10T10:09:09.736Z,1004.62
2017-05-10T10:10:09.767Z,1004.58
2017-05-10T10:11:09.700Z,1004.58
2017-05-10T10:12:09.684Z,1004.52
2017-05-10T10:13:09.669Z,1004.57
2017-05-10T10:14:09.650Z,1004.58
2017-05-10T10:15:09.635Z,1004.57
2017-05-10T10:16:09.616Z,1004.55
2017-05-10T10:17:09.599Z,1004.54
2017-05-10T10:26:05.314Z,1004.5
2017-05-10T10:27:05.280Z,1004.49
2017-05-10T10:28:05.262Z,1004.51
2017-05-10T10:29:05.245Z,1004.53
2017-05-10T10:30:05.224Z,1004.49
2017-05-10T10:31:05.208Z,1004.47
2017-05-10T10:32:05.194Z,1004.48
2017-05-10T10:33:05.175Z,1004.48
2017-05-10T10:34:05.159Z,1004.46
2017-05-10T10:35:05.142Z,1004.45
2017-05-10T10:36:05.123Z,1004.45
2017-05-10T10:37:05.107Z,1004.49
2017-05-10T10:39:05.076Z,1004.39
2017-05-10T10:40:05.060Z,1004.44
2017-05-10T10:41:05.048Z,1004.37
2017-05-10T10:42:05.031Z,1004.36
2017-05-10T10:43:05.018Z,1004.35
2017-05-10T10:44:05.005Z,1004.4
2017-05-10T10:45:04.988Z,1004.31
2017-05-10T10:46:04.978Z,1004.35
2017-05-10T10:47:04.969Z,1004.27
2017-05-10T10:48:04.957Z,1004.22
2017-05-10T10:49:04.940Z,1004.23
2017-05-10T10:50:04.927Z,1004.25
2017-05-10T10:51:04.914Z,1004.23
2017-05-10T10:52:04.905Z,1004.21
2017-05-10T10:53:04.889Z,1004.19
2017-05-10T10:54:04.878Z,1004.23
2017-05-10T10:55:04.863Z,1004.12
2017-05-10T10:56:04.851Z,1004.18
2017-05-10T10:57:04.835Z,1004.14
2017-05-10T10:58:04.825Z,1004.1
2017-05-10T10:59:04.814Z,1004.13
2017-05-10T11:00:04.797Z,1004.09
2017-05-10T11:01:04.783Z,1004.11
2017-05-10T11:02:04.768Z,1004.09
2017-05-10T11:03:04.757Z,1004.16
2017-05-10T11:04:04.739Z,1004.11
2017-05-10T11:05:04.723Z,1004.09
2017-05-10T11:06:04.706Z,1004.09
2017-05-10T11:07:04.694Z,1004.06
2017-05-10T11:08:04.673Z,1004.04
2017-05-10T11:09:04.660Z,1004.02
2017-05-10T11:10:04.639Z,1004.05
2017-05-10T11:11:04.621Z,1004.02
2017-05-10T11:12:04.605Z,1003.98
2017-05-10T11:13:04.588Z,1003.96
2017-05-10T11:14:04.566Z,1003.98
2017-05-10T11:15:04.549Z,1003.99
2017-05-10T11:16:04.534Z,1004
2017-05-10T11:17:04.513Z,1003.99
2017-05-10T11:18:04.499Z,1003.97
2017-05-10T11:19:04.474Z,1004
2017-05-10T11:20:04.461Z,1003.94
2017-05-10T11:21:04.438Z,1003.96
2017-05-10T11:22:04.423Z,1004
2017-05-10T11:23:04.401Z,1003.95
2017-05-10T11:24:04.384Z,1003.98
2017-05-10T11:25:04.366Z,1004.02
2017-05-10T11:26:04.350Z,1004.02
2017-05-10T11:27:04.330Z,1004.02
2017-05-10T11:28:04.361Z,1003.99
2017-05-10T11:29:04.292Z,1004
2017-05-10T11:30:04.271Z,1003.98
2017-05-10T11:31:04.254Z,1003.96
2017-05-10T11:32:04.233Z,1003.97
2017-05-10T11:33:04.215Z,1003.98
2017-05-10T11:34:04.197Z,1003.99
2017-05-10T11:35:04.177Z,1003.96
2017-05-10T11:36:04.160Z,1003.97
2017-05-10T11:37:04.138Z,1003.91
2017-05-10T11:38:04.119Z,1003.92
2017-05-10T11:39:04.099Z,1003.94
2017-05-10T11:40:04.079Z,1003.87
2017-05-10T11:41:04.059Z,1003.87
2017-05-10T11:42:04.042Z,1003.86
2017-05-10T11:43:04.023Z,1003.83
2017-05-10T11:44:04.004Z,1003.85
2017-05-10T11:45:03.982Z,1003.83
2017-05-10T11:46:03.975Z,1003.86
2017-05-10T11:47:03.944Z,1003.73
2017-05-10T11:48:03.975Z,1003.81
2017-05-10T11:49:03.919Z,1003.75
2017-05-10T11:50:03.885Z,1003.8
2017-05-10T11:51:03.867Z,1003.77
2017-05-10T11:52:03.848Z,1003.78
2017-05-10T11:53:03.829Z,1003.78
2017-05-10T11:54:03.812Z,1003.77
2017-05-10T11:55:03.792Z,1003.75
2017-05-10T11:56:03.773Z,1003.69
2017-05-10T11:57:03.750Z,1003.69
2017-05-10T11:58:03.731Z,1003.68
2017-05-10T11:59:03.714Z,1003.69
2017-05-10T12:00:03.691Z,1003.65
2017-05-10T12:01:03.669Z,1003.61
2017-05-10T12:02:03.650Z,1003.59
2017-05-10T12:03:03.628Z,1003.58
2017-05-10T12:04:03.612Z,1003.64
2017-05-10T12:05:03.591Z,1003.62
2017-05-10T12:06:03.570Z,1003.62
2017-05-10T12:07:03.548Z,1003.59
2017-05-10T12:08:03.566Z,1003.64
2017-05-10T12:09:03.511Z,1003.61
2017-05-10T12:10:03.482Z,1003.62
2017-05-10T12:11:03.469Z,1003.61
2017-05-10T12:12:03.448Z,1003.62
2017-05-10T12:13:03.431Z,1003.63
2017-05-10T12:14:03.462Z,1003.59
2017-05-10T12:15:03.388Z,1003.57
2017-05-10T12:16:03.367Z,1003.58
2017-05-10T12:17:03.346Z,1003.59